Time,TemperatureF,DewpointF,PressureIn,WindDirection,WindDirectionDegrees,WindSpeedMPH,WindSpeedGustMPH,Humidity,HourlyPrecipIn,Conditions,Clouds,dailyrainin,SoftwareType,DateUTC
2013-01-25 00:10:00,20.5,-8.1,30.41,NNW,338,4.0,6.3,27,0.00,,,-99.99,FreeWX 2.04,2013-01-25 05:10:00,
2013-01-25 00:20:00,20.5,-9.8,30.41,NNW,344,4.0,6.7,25,0.00,,,-99.99,FreeWX 2.04,2013-01-25 05:20:00,
2013-01-25 00:30:00,20.7,-9.6,30.39,NNW,345,4.0,7.8,25,0.00,,,-99.99,FreeWX 2.04,2013-01-25 05:30:00,
2013-01-25 00:40:00,20.5,-9.8,30.39,NNW,345,4.0,6.7,25,0.00,,,-99.99,FreeWX 2.04,2013-01-25 05:40:00,
2013-01-25 00:50:00,21.0,-9.2,30.39,NNW,344,5.0,8.3,25,0.00,,,-99.99,FreeWX 2.04,2013-01-25 05:50:00,
2013-01-25 01:00:00,21.0,-9.2,30.39,NNW,338,4.0,8.7,25,0.00,,,-99.99,FreeWX 2.04,2013-01-25 06:00:00,
2013-01-25 01:10:00,20.8,-9.4,30.39,NNW,338,5.0,9.6,25,0.00,,,-99.99,FreeWX 2.04,2013-01-25 06:10:00,
2013-01-25 01:20:00,21.0,-9.2,30.36,NNW,343,5.0,7.4,25,0.00,,,-99.99,FreeWX 2.04,2013-01-25 06:20:00,
2013-01-25 01:30:00,21.0,-9.2,30.36,NNW,342,5.0,7.4,25,0.00,,,-99.99,FreeWX 2.04,2013-01-25 06:30:00,
2013-01-25 01:40:00,21.0,-9.2,30.36,NNW,342,5.0,8.7,25,0.00,,,-99.99,FreeWX 2.04,2013-01-25 06:40:00,
2013-01-25 01:50:00,21.0,-9.2,30.36,NNW,347,4.0,6.7,25,0.00,,,-99.99,FreeWX 2.04,2013-01-25 06:50:00,
2013-01-25 02:00:00,21.0,-9.2,30.33,NNW,344,5.0,9.6,25,0.00,,,-99.99,FreeWX 2.04,2013-01-25 07:00:00,
2013-01-25 02:10:00,21.0,-9.2,30.33,NNW,341,4.0,7.8,25,0.00,,,-99.99,FreeWX 2.04,2013-01-25 07:10:00,
2013-01-25 02:20:00,21.0,-9.2,30.33,NNW,333,5.0,7.8,25,0.00,,,-99.99,FreeWX 2.04,2013-01-25 07:20:00,
2013-01-25 02:31:00,20.8,-9.4,30.30,NNW,342,5.0,7.4,25,0.00,,,-99.99,FreeWX 2.04,2013-01-25 07:31:00,
2013-01-25 02:41:00,20.8,-9.4,30.30,NNW,344,4.0,7.4,25,0.00,,,-99.99,FreeWX 2.04,2013-01-25 07:41:00,
2013-01-25 02:51:00,21.0,-9.2,30.33,NW,325,3.0,4.5,25,0.00,,,-99.99,FreeWX 2.04,2013-01-25 07:51:00,
2013-01-25 03:01:00,21.0,-9.2,30.30,NNW,341,5.0,8.7,25,0.00,,,-99.99,FreeWX 2.04,2013-01-25 08:01:00,
2013-01-25 03:11:00,21.0,-9.2,30.30,NNW,343,5.0,8.7,25,0.00,,,-99.99,FreeWX 2.04,2013-01-25 08:11:00,
2013-01-25 03:21:00,21.2,-9.0,30.33,NNW,348,3.0,5.8,25,0.00,,,-99.99,FreeWX 2.04,2013-01-25 08:21:00,
2013-01-25 03:31:00,21.0,-9.2,30.30,NNW,348,4.0,4.9,25,0.00,,,-99.99,FreeWX 2.04,2013-01-25 08:31:00,
2013-01-25 03:41:00,21.2,-9.0,30.30,NNW,340,4.0,6.7,25,0.00,,,-99.99,FreeWX 2.04,2013-01-25 08:41:00,
2013-01-25 03:51:00,21.2,-9.0,30.30,NNW,339,4.0,6.7,25,0.00,,,-99.99,FreeWX 2.04,2013-01-25 08:51:00,
2013-01-25 04:01:00,20.7,-9.6,30.30,NNW,346,3.0,5.8,25,0.00,,,-99.99,FreeWX 2.04,2013-01-25 09:01:00,
2013-01-25 04:11:00,20.8,-9.4,30.30,NNW,344,4.0,6.9,25,0.00,,,-99.99,FreeWX 2.04,2013-01-25 09:11:00,
2013-01-25 04:21:00,21.0,-9.2,30.27,NNW,335,4.0,7.8,25,0.00,,,-99.99,FreeWX 2.04,2013-01-25 09:21:00,
2013-01-25 04:31:00,21.0,-9.2,30.27,NNW,335,4.0,6.9,25,0.00,,,-99.99,FreeWX 2.04,2013-01-25 09:31:00,
2013-01-25 04:41:00,21.0,-9.2,30.27,NNW,347,3.0,6.9,25,0.00,,,-99.99,FreeWX 2.04,2013-01-25 09:41:00,
2013-01-25 04:51:00,21.2,-9.0,30.27,NNW,343,4.0,5.8,25,0.00,,,-99.99,FreeWX 2.04,2013-01-25 09:51:00,
2013-01-25 05:01:00,21.2,-9.0,30.24,NNW,346,4.0,6.3,25,0.00,,,-99.99,FreeWX 2.04,2013-01-25 10:01:00,
2013-01-25 05:11:00,21.4,-8.9,30.24,North,-999,0.0,4.9,25,0.00,,,-99.99,FreeWX 2.04,2013-01-25 10:11:00,
2013-01-25 05:21:00,21.4,-8.9,30.24,NNW,338,3.0,4.9,25,0.00,,,-99.99,FreeWX 2.04,2013-01-25 10:21:00,
2013-01-25 05:31:00,21.2,-9.0,30.24,NNW,345,3.0,6.7,25,0.00,,,-99.99,FreeWX 2.04,2013-01-25 10:31:00,
2013-01-25 05:41:00,21.2,-9.0,30.24,NNW,341,3.0,6.7,25,0.00,,,-99.99,FreeWX 2.04,2013-01-25 10:41:00,
2013-01-25 05:51:00,21.4,-8.9,30.21,NNW,341,3.0,6.9,25,0.00,,,-99.99,FreeWX 2.04,2013-01-25 10:51:00,
2013-01-25 06:01:00,21.4,-8.9,30.21,NNW,341,3.0,6.7,25,0.00,,,-99.99,FreeWX 2.04,2013-01-25 11:01:00,
2013-01-25 06:11:00,21.6,-8.7,30.21,NNW,339,4.0,6.7,25,0.00,,,-99.99,FreeWX 2.04,2013-01-25 11:11:00,
2013-01-25 06:21:00,21.4,-8.9,30.21,NNW,340,3.0,6.3,25,0.00,,,-99.99,FreeWX 2.04,2013-01-25 11:21:00,
2013-01-25 06:31:00,21.4,-8.9,30.21,NNW,342,4.0,8.3,25,0.00,,,-99.99,FreeWX 2.04,2013-01-25 11:31:00,
2013-01-25 06:41:00,21.4,-8.9,30.21,NNW,337,2.0,5.8,25,0.00,,,-99.99,FreeWX 2.04,2013-01-25 11:41:00,
2013-01-25 06:51:00,21.4,-8.9,30.21,NNW,339,3.0,6.9,25,0.00,,,-99.99,FreeWX 2.04,2013-01-25 11:51:00,
2013-01-25 07:01:00,21.7,-8.7,30.21,NW,316,3.0,6.7,25,0.00,,,-99.99,FreeWX 2.04,2013-01-25 12:01:00,
2013-01-25 07:11:00,21.7,-8.7,30.21,NW,313,2.0,5.8,25,0.00,,,-99.99,FreeWX 2.04,2013-01-25 12:11:00,
2013-01-25 07:21:00,21.9,-8.5,30.18,NNW,340,4.0,6.9,25,0.00,,,-99.99,FreeWX 2.04,2013-01-25 12:21:00,
2013-01-25 07:31:00,21.9,-8.5,30.18,NNW,338,4.0,7.4,25,0.00,,,-99.99,FreeWX 2.04,2013-01-25 12:31:00,
2013-01-25 07:41:00,21.7,-8.7,30.18,NNW,340,4.0,7.4,25,0.00,,,-99.99,FreeWX 2.04,2013-01-25 12:41:00,
2013-01-25 07:51:00,21.9,-8.5,30.18,NNW,345,2.0,5.8,25,0.00,,,-99.99,FreeWX 2.04,2013-01-25 12:51:00,
2013-01-25 08:01:00,22.1,-8.3,30.18,NNW,331,4.0,6.7,25,0.00,,,-99.99,FreeWX 2.04,2013-01-25 13:01:00,
2013-01-25 08:11:00,21.9,-6.9,30.18,NNW,333,4.0,6.9,27,0.00,,,-99.99,FreeWX 2.04,2013-01-25 13:11:00,
2013-01-25 08:21:00,21.7,-7.1,30.15,NNW,344,4.0,6.9,27,0.00,,,-99.99,FreeWX 2.04,2013-01-25 13:21:00,
2013-01-25 08:31:00,21.9,-6.9,30.12,NNW,340,4.0,7.4,27,0.00,,,-99.99,FreeWX 2.04,2013-01-25 13:31:00,
2013-01-25 08:41:00,21.9,-6.9,30.12,NNW,335,6.0,8.7,27,0.00,,,-99.99,FreeWX 2.04,2013-01-25 13:41:00,
2013-01-25 08:51:00,21.7,-7.1,30.12,North,350,3.0,6.7,27,0.00,,,-99.99,FreeWX 2.04,2013-01-25 13:51:00,
2013-01-25 09:01:00,22.1,-6.7,30.12,NW,325,3.0,5.8,27,0.00,,,-99.99,FreeWX 2.04,2013-01-25 14:01:00,
2013-01-25 09:11:00,21.9,-6.9,30.12,NNW,341,4.0,5.4,27,0.00,,,-99.99,FreeWX 2.04,2013-01-25 14:11:00,
2013-01-25 09:21:00,22.1,-6.7,30.12,North,351,1.0,4.9,27,0.00,,,-99.99,FreeWX 2.04,2013-01-25 14:21:00,
2013-01-25 09:31:00,22.5,-4.2,30.12,NNW,332,3.0,5.4,30,0.00,,,-99.99,FreeWX 2.04,2013-01-25 14:31:00,
2013-01-25 09:41:00,22.3,-4.4,30.12,NNW,334,3.0,5.4,30,0.00,,,-99.99,FreeWX 2.04,2013-01-25 14:41:00,
2013-01-25 09:51:00,22.1,-2.6,30.12,NNW,347,3.0,6.3,33,0.00,,,-99.99,FreeWX 2.04,2013-01-25 14:51:00,
2013-01-25 10:01:00,21.7,-2.2,30.12,North,349,3.0,6.3,34,0.00,,,-99.99,FreeWX 2.04,2013-01-25 15:01:00,
2013-01-25 10:11:00,21.6,-2.4,30.12,North,351,1.0,4.5,34,0.00,,,-99.99,FreeWX 2.04,2013-01-25 15:11:00,
2013-01-25 10:21:00,21.4,-1.3,30.12,North,-999,0.0,4.0,36,0.00,,,-99.99,FreeWX 2.04,2013-01-25 15:21:00,
2013-01-25 10:31:00,21.6,-0.6,30.12,North,-999,0.0,3.1,37,0.00,,,-99.99,FreeWX 2.04,2013-01-25 15:31:00,
2013-01-25 10:41:00,21.9,0.3,30.12,North,351,2.0,4.0,38,0.00,,,-99.99,FreeWX 2.04,2013-01-25 15:41:00,
2013-01-25 10:51:00,22.1,1.0,30.09,North,351,2.0,4.0,39,0.00,,,-99.99,FreeWX 2.04,2013-01-25 15:51:00,
2013-01-25 11:01:00,22.1,1.0,30.12,North,351,1.0,4.0,39,0.00,,,-99.99,FreeWX 2.04,2013-01-25 16:01:00,
2013-01-25 11:11:00,21.6,2.1,30.12,NW,305,2.0,4.0,42,0.00,,,-99.99,FreeWX 2.04,2013-01-25 16:11:00,
2013-01-25 11:21:00,22.1,3.0,30.09,NW,318,3.0,5.8,43,0.00,,,-99.99,FreeWX 2.04,2013-01-25 16:21:00,
2013-01-25 11:31:00,22.5,4.3,30.09,NNW,328,4.0,6.7,45,0.00,,,-99.99,FreeWX 2.04,2013-01-25 16:31:00,
2013-01-25 11:41:00,22.3,6.1,30.09,NW,325,5.0,8.3,49,0.00,,,-99.99,FreeWX 2.04,2013-01-25 16:41:00,
2013-01-25 11:51:00,22.6,7.3,30.06,NW,312,4.0,6.9,51,0.00,,,-99.99,FreeWX 2.04,2013-01-25 16:51:00,
2013-01-25 12:01:00,22.8,7.5,30.06,SW,217,2.0,5.4,51,0.00,,,-99.99,FreeWX 2.04,2013-01-25 17:01:00,
2013-01-25 12:11:00,22.5,6.3,30.06,South,175,2.0,4.5,49,0.00,,,-99.99,FreeWX 2.04,2013-01-25 17:11:00,
2013-01-25 12:21:00,23.0,7.2,30.06,North,-999,0.0,0.0,50,0.00,,,-99.99,FreeWX 2.04,2013-01-25 17:21:00,
2013-01-25 12:31:00,23.2,6.8,30.06,North,-999,0.0,3.1,49,0.00,,,-99.99,FreeWX 2.04,2013-01-25 17:31:00,
2013-01-25 12:41:00,23.4,7.5,30.06,NW,316,3.0,4.9,50,0.00,,,-99.99,FreeWX 2.04,2013-01-25 17:41:00,
2013-01-25 12:51:00,23.2,8.2,30.03,NNE,27,1.0,4.5,52,0.00,,,-99.99,FreeWX 2.04,2013-01-25 17:51:00,
2013-01-25 13:01:00,23.5,9.0,30.03,North,-999,0.0,4.0,53,0.00,,,-99.99,FreeWX 2.04,2013-01-25 18:01:00,
2013-01-25 13:11:00,23.5,9.0,30.03,North,-999,0.0,0.0,53,0.00,,,-99.99,FreeWX 2.04,2013-01-25 18:11:00,
2013-01-25 13:21:00,23.7,8.8,30.03,North,-999,0.0,0.0,52,0.00,,,-99.99,FreeWX 2.04,2013-01-25 18:21:00,
2013-01-25 13:31:00,23.9,8.8,30.03,North,-999,0.0,3.1,52,0.00,,,-99.99,FreeWX 2.04,2013-01-25 18:31:00,
2013-01-25 13:41:00,23.9,8.8,30.03,NNE,31,1.0,4.0,52,0.00,,,-99.99,FreeWX 2.04,2013-01-25 18:41:00,
2013-01-25 13:51:00,24.1,9.0,30.03,North,-999,0.0,2.7,52,0.00,,,-99.99,FreeWX 2.04,2013-01-25 18:51:00,
2013-01-25 14:01:00,24.4,9.3,30.03,North,-999,0.0,2.7,52,0.00,,,-99.99,FreeWX 2.04,2013-01-25 19:01:00,
2013-01-25 14:11:00,24.6,9.5,30.03,North,-999,0.0,0.0,52,0.00,,,-99.99,FreeWX 2.04,2013-01-25 19:11:00,
2013-01-25 14:21:00,24.6,9.5,30.03,North,-999,0.0,3.6,52,0.00,,,-99.99,FreeWX 2.04,2013-01-25 19:21:00,
2013-01-25 14:31:00,25.0,9.9,30.03,North,-999,0.0,3.1,52,0.00,,,-99.99,FreeWX 2.04,2013-01-25 19:31:00,
2013-01-25 14:41:00,25.5,10.4,30.03,North,-999,0.0,4.5,52,0.00,,,-99.99,FreeWX 2.04,2013-01-25 19:41:00,
2013-01-25 14:51:00,25.3,10.2,30.00,North,-999,0.0,0.0,52,0.00,,,-99.99,FreeWX 2.04,2013-01-25 19:51:00,
2013-01-25 15:01:00,25.5,10.4,30.00,North,-999,0.0,0.0,52,0.00,,,-99.99,FreeWX 2.04,2013-01-25 20:01:00,
2013-01-25 15:11:00,25.9,11.1,30.00,North,-999,0.0,3.6,53,0.00,,,-99.99,FreeWX 2.04,2013-01-25 20:11:00,
2013-01-25 15:21:00,25.9,11.1,30.00,North,-999,0.0,3.6,53,0.00,,,-99.99,FreeWX 2.04,2013-01-25 20:21:00,
2013-01-25 15:31:00,25.7,10.9,30.00,North,-999,0.0,0.0,53,0.00,,,-99.99,FreeWX 2.04,2013-01-25 20:31:00,
2013-01-25 15:41:00,25.9,11.1,30.00,North,-999,0.0,0.0,53,0.00,,,-99.99,FreeWX 2.04,2013-01-25 20:41:00,
2013-01-25 15:51:00,26.2,11.5,30.00,North,-999,0.0,3.6,53,0.00,,,-99.99,FreeWX 2.04,2013-01-25 20:51:00,
2013-01-25 16:01:00,26.1,11.3,30.03,North,-999,0.0,2.7,53,0.00,,,-99.99,FreeWX 2.04,2013-01-25 21:01:00,
2013-01-25 16:11:00,26.1,11.3,30.03,North,-999,0.0,0.0,53,0.00,,,-99.99,FreeWX 2.04,2013-01-25 21:11:00,
2013-01-25 16:21:00,26.1,11.7,30.03,North,-999,0.0,4.9,54,0.00,,,-99.99,FreeWX 2.04,2013-01-25 21:21:00,
2013-01-25 16:31:00,26.2,12.4,30.03,North,-999,0.0,3.6,55,0.00,,,-99.99,FreeWX 2.04,2013-01-25 21:31:00,
2013-01-25 16:41:00,26.6,12.6,30.03,East,94,2.0,7.8,55,0.00,,,-99.99,FreeWX 2.04,2013-01-25 21:41:00,
2013-01-25 16:51:00,27.0,13.8,30.03,ENE,77,3.0,8.7,57,0.00,,,-99.99,FreeWX 2.04,2013-01-25 21:51:00,
2013-01-25 17:01:00,27.0,13.5,30.03,ENE,74,2.0,5.8,56,0.00,,,-99.99,FreeWX 2.04,2013-01-25 22:01:00,
2013-01-25 17:11:00,27.0,13.5,30.03,ENE,65,3.0,6.9,56,0.00,,,-99.99,FreeWX 2.04,2013-01-25 22:11:00,
2013-01-25 17:21:00,27.0,13.5,30.03,ENE,73,2.0,5.8,56,0.00,,,-99.99,FreeWX 2.04,2013-01-25 22:21:00,
2013-01-25 17:31:00,26.8,13.3,30.03,NE,50,2.0,5.4,56,0.00,,,-99.99,FreeWX 2.04,2013-01-25 22:31:00,
2013-01-25 17:41:00,26.8,13.3,30.03,ENE,62,1.0,5.8,56,0.00,,,-99.99,FreeWX 2.04,2013-01-25 22:41:00,
2013-01-25 17:52:00,26.6,13.1,30.03,NE,56,3.0,7.4,56,0.00,,,-99.99,FreeWX 2.04,2013-01-25 22:52:00,
2013-01-25 18:02:00,26.4,12.4,30.03,ENE,73,2.0,4.9,55,0.00,,,-99.99,FreeWX 2.04,2013-01-25 23:02:00,
2013-01-25 18:12:00,26.4,12.4,30.03,NE,51,1.0,6.3,55,0.00,,,-99.99,FreeWX 2.04,2013-01-25 23:12:00,
2013-01-25 18:22:00,26.2,12.4,30.03,ENE,77,2.0,6.3,55,0.00,,,-99.99,FreeWX 2.04,2013-01-25 23:22:00,
2013-01-25 18:32:00,26.2,12.4,30.06,East,85,1.0,6.9,55,0.00,,,-99.99,FreeWX 2.04,2013-01-25 23:32:00,
2013-01-25 18:42:00,26.2,12.4,30.06,East,82,1.0,3.6,55,0.00,,,-99.99,FreeWX 2.04,2013-01-25 23:42:00,
2013-01-25 18:52:00,26.2,12.7,30.06,NE,34,1.0,4.9,56,0.00,,,-99.99,FreeWX 2.04,2013-01-25 23:52:00,
2013-01-25 19:02:00,26.4,12.9,30.06,NNE,30,1.0,4.0,56,0.00,,,-99.99,FreeWX 2.04,2013-01-26 00:02:00,
2013-01-25 19:12:00,26.4,12.9,30.06,North,-999,0.0,4.0,56,0.00,,,-99.99,FreeWX 2.04,2013-01-26 00:12:00,
2013-01-25 19:22:00,26.4,12.9,30.06,ENE,64,1.0,4.0,56,0.00,,,-99.99,FreeWX 2.04,2013-01-26 00:22:00,
2013-01-25 19:32:00,26.4,12.9,30.09,North,-999,0.0,4.5,56,0.00,,,-99.99,FreeWX 2.04,2013-01-26 00:32:00,
2013-01-25 19:42:00,26.6,13.1,30.09,North,-999,0.0,3.1,56,0.00,,,-99.99,FreeWX 2.04,2013-01-26 00:42:00,
2013-01-25 19:52:00,26.6,13.1,30.09,North,-999,0.0,4.0,56,0.00,,,-99.99,FreeWX 2.04,2013-01-26 00:52:00,
2013-01-25 20:02:00,26.8,13.6,30.09,ENE,61,1.0,5.8,57,0.00,,,-99.99,FreeWX 2.04,2013-01-26 01:02:00,
2013-01-25 20:12:00,27.0,13.8,30.09,ENE,69,1.0,5.4,57,0.00,,,-99.99,FreeWX 2.04,2013-01-26 01:12:00,
2013-01-25 20:22:00,27.0,13.8,30.09,North,-999,0.0,3.1,57,0.00,,,-99.99,FreeWX 2.04,2013-01-26 01:22:00,
2013-01-25 20:32:00,27.0,13.8,30.09,North,-999,0.0,4.0,57,0.00,,,-99.99,FreeWX 2.04,2013-01-26 01:32:00,
2013-01-25 20:42:00,27.0,13.8,30.09,North,-999,0.0,4.5,57,0.00,,,-99.99,FreeWX 2.04,2013-01-26 01:42:00,
2013-01-25 20:52:00,27.1,14.0,30.09,ENE,68,1.0,4.5,57,0.00,,,-99.99,FreeWX 2.04,2013-01-26 01:52:00,
2013-01-25 21:02:00,27.1,14.0,30.09,North,-999,0.0,3.6,57,0.00,,,-99.99,FreeWX 2.04,2013-01-26 02:02:00,
2013-01-25 21:12:00,27.1,14.0,30.09,ENE,62,1.0,4.0,57,0.00,,,-99.99,FreeWX 2.04,2013-01-26 02:12:00,
2013-01-25 21:22:00,27.1,14.0,30.09,NE,55,1.0,4.5,57,0.00,,,-99.99,FreeWX 2.04,2013-01-26 02:22:00,
2013-01-25 21:32:00,27.5,14.7,30.09,NNE,28,1.0,4.9,58,0.00,,,-99.99,FreeWX 2.04,2013-01-26 02:32:00,
2013-01-25 21:42:00,27.5,14.7,30.09,North,-999,0.0,3.6,58,0.00,,,-99.99,FreeWX 2.04,2013-01-26 02:42:00,
2013-01-25 21:52:00,27.3,14.5,30.09,North,-999,0.0,4.5,58,0.00,,,-99.99,FreeWX 2.04,2013-01-26 02:52:00,
2013-01-25 22:02:00,27.5,14.7,30.12,North,352,1.0,4.0,58,0.00,,,-99.99,FreeWX 2.04,2013-01-26 03:02:00,
2013-01-25 22:12:00,27.5,14.7,30.12,NE,39,2.0,6.3,58,0.00,,,-99.99,FreeWX 2.04,2013-01-26 03:12:00,
2013-01-25 22:22:00,27.5,14.7,30.12,NE,49,1.0,5.4,58,0.00,,,-99.99,FreeWX 2.04,2013-01-26 03:22:00,
2013-01-25 22:32:00,27.5,14.7,30.12,ENE,57,1.0,4.5,58,0.00,,,-99.99,FreeWX 2.04,2013-01-26 03:32:00,
2013-01-25 22:42:00,27.7,14.9,30.12,North,-999,0.0,4.9,58,0.00,,,-99.99,FreeWX 2.04,2013-01-26 03:42:00,
2013-01-25 22:52:00,27.7,15.3,30.12,East,89,1.0,4.9,59,0.00,,,-99.99,FreeWX 2.04,2013-01-26 03:52:00,
2013-01-25 23:02:00,27.9,15.4,30.12,ENE,74,2.0,7.4,59,0.00,,,-99.99,FreeWX 2.04,2013-01-26 04:02:00,
2013-01-25 23:12:00,27.9,15.4,30.12,ENE,60,1.0,5.8,59,0.00,,,-99.99,FreeWX 2.04,2013-01-26 04:12:00,
2013-01-25 23:22:00,28.0,15.6,30.15,East,84,2.0,5.4,59,0.00,,,-99.99,FreeWX 2.04,2013-01-26 04:22:00,
2013-01-25 23:32:00,28.0,15.6,30.15,East,87,2.0,5.4,59,0.00,,,-99.99,FreeWX 2.04,2013-01-26 04:32:00,
2013-01-25 23:42:00,27.9,15.4,30.15,East,90,2.0,6.3,59,0.00,,,-99.99,FreeWX 2.04,2013-01-26 04:42:00,
2013-01-25 23:52:00,28.0,15.6,30.15,East,82,2.0,6.3,59,0.00,,,-99.99,FreeWX 2.04,2013-01-26 04:52:00,